Time;durP1;ratioP1;P1;durP2;ratioP2;P2;SDS_P1;SDS_P2;PMS_P1;PMS_P2;Temp;Humidity;BMP_temperature;BMP_pressure;BME280_temperature;BME280_humidity;BME280_pressure;Samples;Min_cycle;Max_cycle;Signal;HPM_P1;HPM_P2
2020/12/14 00:01:52;;;;;;;;;;;;;;;;;;5033384;28;1387;-79
2020/12/14 00:04:17;;;;;;;;;;;;;;;;;;5033799;28;1548;-79
2020/12/14 00:06:48;;;;;;;;;;;;;;;;;;5034810;28;968;-79
2020/12/14 00:09:13;;;;;;;;;;;;;;;;;;5034706;28;812;-79
2020/12/14 00:11:38;;;;;;;;;;;;;;;;;;5034454;28;1286;-79
2020/12/14 00:14:03;;;;;;;;;;;;;;;;;;5033345;28;1902;-79
2020/12/14 00:16:29;;;;;;;;;;;;;;;;;;5034625;28;901;-79
2020/12/14 00:18:54;;;;;;;;;;;;;;;;;;5033307;28;1333;-79
2020/12/14 00:21:19;;;;;;;;;;;;;;;;;;5034006;28;1266;-79
2020/12/14 00:23:47;;;;;;;;;;;;;;;;;;5033565;28;893;-79
2020/12/14 00:26:12;;;;;;;;;;;;;;;;;;5034385;28;931;-79
2020/12/14 00:28:37;;;;;;;;;;;;;;;;;;5034466;28;818;-79
2020/12/14 00:31:03;;;;;;;;;;;;;;;;;;5034431;28;865;-79
2020/12/14 00:33:28;;;;;;;;;;;;;;;;;;5034286;28;1897;-79
2020/12/14 00:35:53;;;;;;;;;;;;;;;;;;5034445;28;856;-79
2020/12/14 00:38:18;;;;;;;;;;;;;;;;;;5034489;28;848;-79
2020/12/14 00:40:44;;;;;;;;;;;;;;;;;;5032727;28;1290;-79
2020/12/14 00:43:09;;;;;;;;;;;;;;;;;;5032873;28;1424;-79
2020/12/14 00:45:34;;;;;;;;;;;;;;;;;;5033409;28;1388;-79
2020/12/14 00:47:59;;;;;;;;;;;;;;;;;;5033108;28;1223;-79
2020/12/14 00:50:25;;;;;;;;;;;;;;;;;;5032900;28;1115;-79
2020/12/14 00:52:50;;;;;;;;;;;;;;;;;;5034060;28;1890;-79
2020/12/14 00:55:15;;;;;;;;;;;;;;;;;;5033927;28;928;-79
2020/12/14 00:57:40;;;;;;;;;;;;;;;;;;5034225;28;964;-79
2020/12/14 01:00:05;;;;;;;;;;;;;;;;;;5032818;28;923;-79
2020/12/14 01:02:31;;;;;;;;;;;;;;;;;;5034397;28;1385;-79
2020/12/14 01:04:56;;;;;;;;;;;;;;;;;;5033492;28;1235;-79
2020/12/14 01:07:21;;;;;;;;;;;;;;;;;;5034518;28;1366;-79
2020/12/14 01:09:46;;;;;;;;;;;;;;;;;;5034477;28;896;-80
2020/12/14 01:12:12;;;;;;;;;;;;;;;;;;5033223;28;1481;-80
2020/12/14 01:14:37;;;;;;;;;;;;;;;;;;5034412;28;1969;-79
2020/12/14 01:17:02;;;;;;;;;;;;;;;;;;5034647;28;814;-80
2020/12/14 01:19:27;;;;;;;;;;;;;;;;;;5033254;28;1322;-79
2020/12/14 01:21:53;;;;;;;;;;;;;;;;;;5033126;28;1274;-80
2020/12/14 01:24:18;;;;;;;;;;;;;;;;;;5034341;28;930;-80
2020/12/14 01:26:43;;;;;;;;;;;;;;;;;;5033200;28;1643;-80
2020/12/14 01:29:08;;;;;;;;;;;;;;;;;;5033386;28;1465;-80
2020/12/14 01:31:34;;;;;;;;;;;;;;;;;;5033486;28;1612;-80
2020/12/14 01:33:59;;;;;;;;;;;;;;;;;;5037040;28;1957;-80
2020/12/14 01:36:24;;;;;;;;;;;;;;;;;;5038200;28;884;-80
2020/12/14 01:38:49;;;;;;;;;;;;;;;;;;5038122;28;885;-79
2020/12/14 01:41:15;;;;;;;;;;;;;;;;;;5038030;28;1259;-79
2020/12/14 01:43:40;;;;;;;;;;;;;;;;;;5037073;28;1385;-79
2020/12/14 01:46:05;;;;;;;;;;;;;;;;;;5038320;28;873;-79
2020/12/14 01:48:30;;;;;;;;;;;;;;;;;;5038201;28;881;-79
2020/12/14 01:50:56;;;;;;;;;;;;;;;;;;5037743;28;821;-79
2020/12/14 01:53:21;;;;;;;;;;;;;;;;;;5036737;28;1890;-79
2020/12/14 01:55:47;;;;;;;;;;;;;;;;;;5036539;28;1323;-79
2020/12/14 01:58:12;;;;;;;;;;;;;;;;;;5036450;28;1121;-79
2020/12/14 02:00:38;;;;;;;;;;;;;;;;;;5037516;28;904;-80
2020/12/14 02:03:03;;;;;;;;;;;;;;;;;;5036771;28;1345;-79
2020/12/14 02:05:28;;;;;;;;;;;;;;;;;;5037753;28;829;-79
2020/12/14 02:07:54;;;;;;;;;;;;;;;;;;5037847;28;983;-80
2020/12/14 02:10:19;;;;;;;;;;;;;;;;;;5036157;28;1339;-80
2020/12/14 02:12:44;;;;;;;;;;;;;;;;;;5036211;28;1969;-80
2020/12/14 02:15:09;;;;;;;;;;;;;;;;;;5037626;28;964;-79
2020/12/14 02:17:35;;;;;;;;;;;;;;;;;;5037562;28;884;-79
2020/12/14 02:20:00;;;;;;;;;;;;;;;;;;5036046;28;1249;-79
2020/12/14 02:22:26;;;;;;;;;;;;;;;;;;5037539;28;1266;-79
2020/12/14 02:24:53;;;;;;;;;;;;;;;;;;5037295;28;914;-79
2020/12/14 02:27:18;;;;;;;;;;;;;;;;;;5036061;28;1534;-79
2020/12/14 02:29:44;;;;;;;;;;;;;;;;;;5037207;28;875;-79
2020/12/14 02:32:12;;;;;;;;;;;;;;;;;;5035920;28;1306;-79
2020/12/14 02:34:39;;;;;;;;;;;;;;;;;;5035801;28;1902;-79
2020/12/14 02:37:05;;;;;;;;;;;;;;;;;;5035827;28;1307;-79
2020/12/14 02:39:30;;;;;;;;;;;;;;;;;;5037277;28;885;-79
2020/12/14 02:41:55;;;;;;;;;;;;;;;;;;5035714;28;1345;-79
2020/12/14 02:44:20;;;;;;;;;;;;;;;;;;5035443;28;1235;-79
2020/12/14 02:46:46;;;;;;;;;;;;;;;;;;5035697;28;1305;-79
2020/12/14 02:49:11;;;;;;;;;;;;;;;;;;5036879;28;861;-79
2020/12/14 02:51:36;;;;;;;;;;;;;;;;;;5035588;28;1330;-79
2020/12/14 02:54:01;;;;;;;;;;;;;;;;;;5035583;28;1956;-79
2020/12/14 02:56:27;;;;;;;;;;;;;;;;;;5035540;28;1187;-79
2020/12/14 02:58:52;;;;;;;;;;;;;;;;;;5035657;28;1242;-79
2020/12/14 03:01:17;;;;;;;;;;;;;;;;;;5036370;28;1302;-79
2020/12/14 03:03:42;;;;;;;;;;;;;;;;;;5036594;28;829;-79
2020/12/14 03:06:08;;;;;;;;;;;;;;;;;;5035284;28;1188;-79
2020/12/14 03:08:33;;;;;;;;;;;;;;;;;;5036466;28;948;-79
2020/12/14 03:10:58;;;;;;;;;;;;;;;;;;5035326;28;924;-79
2020/12/14 03:13:23;;;;;;;;;;;;;;;;;;5036305;28;1906;-79
2020/12/14 03:15:49;;;;;;;;;;;;;;;;;;5035259;28;1297;-79
2020/12/14 03:18:14;;;;;;;;;;;;;;;;;;5036344;28;817;-79
2020/12/14 03:20:39;;;;;;;;;;;;;;;;;;5036111;28;964;-79
2020/12/14 03:23:04;;;;;;;;;;;;;;;;;;5036182;28;1314;-79
2020/12/14 03:25:29;;;;;;;;;;;;;;;;;;5035507;28;1296;-79
2020/12/14 03:27:55;;;;;;;;;;;;;;;;;;5035121;28;826;-79
2020/12/14 03:30:20;;;;;;;;;;;;;;;;;;5035062;28;1125;-80
2020/12/14 03:32:45;;;;;;;;;;;;;;;;;;5036060;28;1961;-80
2020/12/14 03:35:11;;;;;;;;;;;;;;;;;;5036002;28;881;-80
2020/12/14 03:37:36;;;;;;;;;;;;;;;;;;5034620;28;1530;-80
2020/12/14 03:40:01;;;;;;;;;;;;;;;;;;5034855;28;1152;-80
2020/12/14 03:42:29;;;;;;;;;;;;;;;;;;5034548;28;1451;-80
2020/12/14 03:44:54;;;;;;;;;;;;;;;;;;5035997;28;828;-80
2020/12/14 03:47:20;;;;;;;;;;;;;;;;;;5035932;28;988;-80
2020/12/14 03:49:45;;;;;;;;;;;;;;;;;;5035498;28;971;-80
2020/12/14 03:52:10;;;;;;;;;;;;;;;;;;5034872;28;1267;-80
2020/12/14 03:54:35;;;;;;;;;;;;;;;;;;5034913;28;1965;-79
2020/12/14 03:57:00;;;;;;;;;;;;;;;;;;5034708;28;1128;-79
2020/12/14 03:59:26;;;;;;;;;;;;;;;;;;5034159;28;1302;-79
2020/12/14 04:01:55;;;;;;;;;;;;;;;;;;5033971;28;1411;-80
2020/12/14 04:04:20;;;;;;;;;;;;;;;;;;5035546;28;876;-79
2020/12/14 04:06:45;;;;;;;;;;;;;;;;;;5034196;28;1200;-79
2020/12/14 04:09:11;;;;;;;;;;;;;;;;;;5034353;28;1254;-79
2020/12/14 04:11:36;;;;;;;;;;;;;;;;;;5033822;28;1746;-79
2020/12/14 04:14:01;;;;;;;;;;;;;;;;;;5035304;28;1968;-79
2020/12/14 04:16:26;;;;;;;;;;;;;;;;;;5035385;28;912;-79
2020/12/14 04:18:51;;;;;;;;;;;;;;;;;;5035445;28;940;-80
2020/12/14 04:21:17;;;;;;;;;;;;;;;;;;5033694;28;1353;-79
2020/12/14 04:23:42;;;;;;;;;;;;;;;;;;5033878;28;1245;-79
2020/12/14 04:26:08;;;;;;;;;;;;;;;;;;5034065;28;1224;-79
2020/12/14 04:28:33;;;;;;;;;;;;;;;;;;5033883;28;1390;-79
2020/12/14 04:30:59;;;;;;;;;;;;;;;;;;5033615;28;3245;-79
2020/12/14 04:33:24;;;;;;;;;;;;;;;;;;5033636;28;1953;-80
2020/12/14 04:35:49;;;;;;;;;;;;;;;;;;5033697;28;1405;-79
2020/12/14 04:38:15;;;;;;;;;;;;;;;;;;5033933;28;921;-79
2020/12/14 04:40:40;;;;;;;;;;;;;;;;;;5033616;28;1283;-79
2020/12/14 04:43:07;;;;;;;;;;;;;;;;;;5035199;28;1409;-79
2020/12/14 04:45:32;;;;;;;;;;;;;;;;;;5034857;28;987;-79
2020/12/14 04:47:58;;;;;;;;;;;;;;;;;;5034907;28;881;-79
2020/12/14 04:50:24;;;;;;;;;;;;;;;;;;5034918;28;1043;-79
2020/12/14 04:52:50;;;;;;;;;;;;;;;;;;5033294;28;1909;-79
2020/12/14 04:55:18;;;;;;;;;;;;;;;;;;5033517;28;1206;-79
2020/12/14 04:57:43;;;;;;;;;;;;;;;;;;5034918;28;817;-79
2020/12/14 05:00:09;;;;;;;;;;;;;;;;;;5034604;28;1009;-79
2020/12/14 05:02:34;;;;;;;;;;;;;;;;;;5034628;28;1282;-79
2020/12/14 05:04:59;;;;;;;;;;;;;;;;;;5034856;28;984;-79
2020/12/14 05:07:41;;;;;;;;;;;;;;;;;;5038168;28;952;-79
2020/12/14 05:10:06;;;;;;;;;;;;;;;;;;5038661;28;829;-79
2020/12/14 05:12:37;;;;;;;;;;;;;;;;;;5037935;28;1902;-79
2020/12/14 05:15:02;;;;;;;;;;;;;;;;;;5038881;28;829;-79
2020/12/14 05:17:27;;;;;;;;;;;;;;;;;;5037611;28;1229;-79
2020/12/14 05:19:53;;;;;;;;;;;;;;;;;;5037211;28;1386;-79
2020/12/14 05:22:18;;;;;;;;;;;;;;;;;;5037326;28;1452;-79
2020/12/14 05:24:47;;;;;;;;;;;;;;;;;;5037226;28;1270;-79
2020/12/14 05:27:27;;;;;;;;;;;;;;;;;;5038505;28;825;-79
2020/12/14 05:29:52;;;;;;;;;;;;;;;;;;5038253;28;909;-79
2020/12/14 05:32:18;;;;;;;;;;;;;;;;;;5037007;28;1278;-79
2020/12/14 05:34:44;;;;;;;;;;;;;;;;;;5038409;28;1894;-79
2020/12/14 05:37:10;;;;;;;;;;;;;;;;;;5038651;28;782;-79
2020/12/14 05:39:37;;;;;;;;;;;;;;;;;;5038345;28;1063;-79
2020/12/14 05:42:08;;;;;;;;;;;;;;;;;;5038147;28;1275;-79
2020/12/14 05:44:34;;;;;;;;;;;;;;;;;;5038051;28;935;-79
2020/12/14 05:46:59;;;;;;;;;;;;;;;;;;5036954;28;1315;-79
2020/12/14 05:49:25;;;;;;;;;;;;;;;;;;5036628;28;1099;-79
2020/12/14 05:51:51;;;;;;;;;;;;;;;;;;5036418;28;1401;-79
2020/12/14 05:54:21;;;;;;;;;;;;;;;;;;5036416;28;1890;-79
2020/12/14 05:56:47;;;;;;;;;;;;;;;;;;5038044;28;817;-80
2020/12/14 05:59:18;;;;;;;;;;;;;;;;;;5037659;28;931;-79
2020/12/14 06:01:43;;;;;;;;;;;;;;;;;;5037510;28;1393;-80
2020/12/14 06:04:09;;;;;;;;;;;;;;;;;;5037797;28;1085;-80
2020/12/14 06:06:44;;;;;;;;;;;;;;;;;;5037614;28;1058;-80
2020/12/14 06:09:11;;;;;;;;;;;;;;;;;;5036816;28;1078;-80
2020/12/14 06:11:37;;;;;;;;;;;;;;;;;;5036390;28;1386;-80
2020/12/14 06:14:02;;;;;;;;;;;;;;;;;;5037459;28;1968;-80
2020/12/14 06:16:34;;;;;;;;;;;;;;;;;;5036337;28;1211;-80
2020/12/14 06:19:00;;;;;;;;;;;;;;;;;;5036829;28;876;-80
2020/12/14 06:21:30;;;;;;;;;;;;;;;;;;5037205;28;1278;-80
2020/12/14 06:23:56;;;;;;;;;;;;;;;;;;5036348;28;1257;-80
2020/12/14 06:26:22;;;;;;;;;;;;;;;;;;5038111;28;913;-80
2020/12/14 06:28:52;;;;;;;;;;;;;;;;;;5037885;28;802;-80
2020/12/14 06:31:30;;;;;;;;;;;;;;;;;;5035721;28;1361;-80
2020/12/14 06:33:55;;;;;;;;;;;;;;;;;;5037222;28;1955;-80
2020/12/14 06:36:21;;;;;;;;;;;;;;;;;;5037407;28;1050;-80
2020/12/14 06:38:48;;;;;;;;;;;;;;;;;;5037232;28;873;-79
2020/12/14 06:41:15;;;;;;;;;;;;;;;;;;5036763;28;1412;-80
2020/12/14 06:43:41;;;;;;;;;;;;;;;;;;5037044;28;849;-80
2020/12/14 06:46:06;;;;;;;;;;;;;;;;;;5037082;28;794;-80
2020/12/14 06:48:41;;;;;;;;;;;;;;;;;;5036926;28;1031;-80
2020/12/14 06:51:07;;;;;;;;;;;;;;;;;;5036639;28;803;-80
2020/12/14 06:53:39;;;;;;;;;;;;;;;;;;5036620;28;1973;-80
2020/12/14 06:56:05;;;;;;;;;;;;;;;;;;5036961;28;1036;-80
2020/12/14 06:58:33;;;;;;;;;;;;;;;;;;5036703;28;956;-80
2020/12/14 07:00:59;;;;;;;;;;;;;;;;;;5035302;28;1415;-82
2020/12/14 07:03:31;;;;;;;;;;;;;;;;;;5036750;28;1338;-80
2020/12/14 07:06:04;;;;;;;;;;;;;;;;;;5036536;28;877;-80
2020/12/14 07:08:39;;;;;;;;;;;;;;;;;;5036806;28;1195;-80
2020/12/14 07:11:10;;;;;;;;;;;;;;;;;;5035526;28;1398;-80
2020/12/14 07:13:36;;;;;;;;;;;;;;;;;;5036973;28;1955;-80
2020/12/14 07:16:04;;;;;;;;;;;;;;;;;;5035147;28;2422;-80
2020/12/14 07:18:31;;;;;;;;;;;;;;;;;;5035064;28;1505;-80
2020/12/14 07:21:03;;;;;;;;;;;;;;;;;;5035205;28;1203;-80
2020/12/14 07:23:29;;;;;;;;;;;;;;;;;;5034953;28;1381;-79
2020/12/14 07:25:55;;;;;;;;;;;;;;;;;;5036252;28;971;-79
2020/12/14 07:28:32;;;;;;;;;;;;;;;;;;5036129;28;916;-80
2020/12/14 07:31:02;;;;;;;;;;;;;;;;;;5033728;28;1213;-79
2020/12/14 07:33:28;;;;;;;;;;;;;;;;;;5036081;28;1890;-80
2020/12/14 07:36:00;;;;;;;;;;;;;;;;;;5034981;28;1309;-79
2020/12/14 07:38:25;;;;;;;;;;;;;;;;;;5036307;28;880;-80
2020/12/14 07:41:02;;;;;;;;;;;;;;;;;;5035860;28;920;-80
2020/12/14 07:43:27;;;;;;;;;;;;;;;;;;5036357;28;1330;-80
2020/12/14 07:45:53;;;;;;;;;;;;;;;;;;5034698;28;1134;-80
2020/12/14 07:48:18;;;;;;;;;;;;;;;;;;5034478;28;1223;-80
2020/12/14 07:50:43;;;;;;;;;;;;;;;;;;5034542;28;1220;-80
2020/12/14 07:53:09;;;;;;;;;;;;;;;;;;5035737;28;1963;-80
2020/12/14 07:55:36;;;;;;;;;;;;;;;;;;5034768;28;1294;-80
2020/12/14 07:58:01;;;;;;;;;;;;;;;;;;5035945;28;886;-80
2020/12/14 08:00:27;;;;;;;;;;;;;;;;;;5035440;28;972;-80
2020/12/14 08:03:01;;;;;;;;;;;;;;;;;;5035660;28;1465;-80
2020/12/14 08:05:26;;;;;;;;;;;;;;;;;;5034309;28;1529;-80
2020/12/14 08:07:53;;;;;;;;;;;;;;;;;;5035521;28;885;-80
2020/12/14 08:10:20;;;;;;;;;;;;;;;;;;5034215;28;1507;-80
2020/12/14 08:12:45;;;;;;;;;;;;;;;;;;5034179;28;1894;-79
2020/12/14 08:15:15;;;;;;;;;;;;;;;;;;5035470;28;940;-79
2020/12/14 08:17:40;;;;;;;;;;;;;;;;;;5034196;28;1725;-79
2020/12/14 08:20:07;;;;;;;;;;;;;;;;;;5035258;28;798;-80
2020/12/14 08:22:33;;;;;;;;;;;;;;;;;;5035193;28;1365;-80
2020/12/14 08:24:59;;;;;;;;;;;;;;;;;;5035421;28;889;-80
2020/12/14 08:27:35;;;;;;;;;;;;;;;;;;5035151;28;939;-80
2020/12/14 08:30:08;;;;;;;;;;;;;;;;;;5033587;28;835;-80
2020/12/14 08:32:33;;;;;;;;;;;;;;;;;;5035575;28;1271;-80
2020/12/14 08:34:59;;;;;;;;;;;;;;;;;;5034120;28;1363;-80
2020/12/14 08:37:24;;;;;;;;;;;;;;;;;;5033644;28;1748;-80
2020/12/14 08:39:59;;;;;;;;;;;;;;;;;;5033591;28;1341;-80
2020/12/14 08:42:29;;;;;;;;;;;;;;;;;;5033340;28;1563;-80
2020/12/14 08:45:05;;;;;;;;;;;;;;;;;;5033510;28;1478;-80
2020/12/14 08:47:34;;;;;;;;;;;;;;;;;;5033685;28;1558;-80
2020/12/14 08:49:59;;;;;;;;;;;;;;;;;;5033362;28;1407;-80
2020/12/14 08:52:25;;;;;;;;;;;;;;;;;;5033801;28;1350;-81
2020/12/14 08:54:54;;;;;;;;;;;;;;;;;;5034791;28;1965;-81
2020/12/14 08:57:23;;;;;;;;;;;;;;;;;;5034935;28;814;-81
2020/12/14 08:59:57;;;;;;;;;;;;;;;;;;5033154;28;1333;-81
2020/12/14 09:02:24;;;;;;;;;;;;;;;;;;5033323;28;1318;-81
2020/12/14 09:04:53;;;;;;;;;;;;;;;;;;5034572;28;985;-81
2020/12/14 09:07:25;;;;;;;;;;;;;;;;;;5033284;28;1458;-80
2020/12/14 09:09:51;;;;;;;;;;;;;;;;;;5033167;28;814;-81
2020/12/14 09:12:16;;;;;;;;;;;;;;;;;;5034669;28;1334;-80
2020/12/14 09:14:42;;;;;;;;;;;;;;;;;;5033350;28;1903;-81
2020/12/14 09:17:12;;;;;;;;;;;;;;;;;;5033253;28;1319;-80
2020/12/14 09:19:38;;;;;;;;;;;;;;;;;;5033598;28;1462;-80
2020/12/14 09:22:03;;;;;;;;;;;;;;;;;;5033092;28;1365;-80
2020/12/14 09:24:33;;;;;;;;;;;;;;;;;;5034959;28;833;-80
2020/12/14 09:27:06;;;;;;;;;;;;;;;;;;5034438;28;846;-80
2020/12/14 09:29:32;;;;;;;;;;;;;;;;;;5033298;28;1575;-80
2020/12/14 09:31:57;;;;;;;;;;;;;;;;;;5034099;28;1361;-80
2020/12/14 09:34:23;;;;;;;;;;;;;;;;;;5033123;28;1971;-80
2020/12/14 09:36:52;;;;;;;;;;;;;;;;;;5034669;28;815;-80
2020/12/14 09:39:18;;;;;;;;;;;;;;;;;;5033094;28;1294;-80
2020/12/14 09:41:43;;;;;;;;;;;;;;;;;;5033013;28;1298;-80
2020/12/14 09:44:08;;;;;;;;;;;;;;;;;;5034358;28;1001;-80
2020/12/14 09:46:34;;;;;;;;;;;;;;;;;;5034212;28;841;-80
2020/12/14 09:48:59;;;;;;;;;;;;;;;;;;5034211;28;896;-80
2020/12/14 09:51:25;;;;;;;;;;;;;;;;;;5032665;28;1372;-80
2020/12/14 09:53:50;;;;;;;;;;;;;;;;;;5036660;28;1883;-80
2020/12/14 09:56:16;;;;;;;;;;;;;;;;;;5036592;28;1638;-80
2020/12/14 09:58:41;;;;;;;;;;;;;;;;;;5036468;28;1211;-80
2020/12/14 10:01:07;;;;;;;;;;;;;;;;;;5037811;28;881;-80
2020/12/14 10:03:33;;;;;;;;;;;;;;;;;;5036600;28;1480;-80
2020/12/14 10:05:58;;;;;;;;;;;;;;;;;;5037906;28;853;-80
2020/12/14 10:08:24;;;;;;;;;;;;;;;;;;5036465;28;1295;-80
2020/12/14 10:10:51;;;;;;;;;;;;;;;;;;5036430;28;1197;-80
2020/12/14 10:13:17;;;;;;;;;;;;;;;;;;5036707;28;1902;-80
2020/12/14 10:15:42;;;;;;;;;;;;;;;;;;5036338;28;1466;-80
2020/12/14 10:18:07;;;;;;;;;;;;;;;;;;5037495;28;799;-80
2020/12/14 10:20:33;;;;;;;;;;;;;;;;;;5035870;28;1226;-80
2020/12/14 10:22:58;;;;;;;;;;;;;;;;;;5036050;28;1338;-81
2020/12/14 10:25:24;;;;;;;;;;;;;;;;;;5037736;28;856;-81
2020/12/14 10:27:50;;;;;;;;;;;;;;;;;;5037434;28;893;-81
2020/12/14 10:30:15;;;;;;;;;;;;;;;;;;5037029;28;841;-81
2020/12/14 10:32:41;;;;;;;;;;;;;;;;;;5035632;28;1906;-81
2020/12/14 10:35:06;;;;;;;;;;;;;;;;;;5037519;28;818;-81
2020/12/14 10:37:32;;;;;;;;;;;;;;;;;;5037302;28;889;-81
2020/12/14 10:39:57;;;;;;;;;;;;;;;;;;5037101;28;790;-81
2020/12/14 10:42:23;;;;;;;;;;;;;;;;;;5037165;28;1266;-81
2020/12/14 10:44:48;;;;;;;;;;;;;;;;;;5036994;28;927;-81
2020/12/14 10:47:13;;;;;;;;;;;;;;;;;;5037037;28;814;-81
2020/12/14 10:49:39;;;;;;;;;;;;;;;;;;5036963;28;868;-81
2020/12/14 10:52:04;;;;;;;;;;;;;;;;;;5036995;28;1302;-82
2020/12/14 10:54:29;;;;;;;;;;;;;;;;;;5035728;28;1957;-82
2020/12/14 10:56:56;;;;;;;;;;;;;;;;;;5035811;28;845;-80
2020/12/14 10:59:22;;;;;;;;;;;;;;;;;;5035325;28;1235;-80
2020/12/14 11:01:50;;;;;;;;;;;;;;;;;;5036501;28;1354;-81
2020/12/14 11:04:16;;;;;;;;;;;;;;;;;;5036708;28;1060;-80
2020/12/14 11:06:41;;;;;;;;;;;;;;;;;;5035402;28;1231;-80
2020/12/14 11:09:06;;;;;;;;;;;;;;;;;;5036654;28;936;-80
2020/12/14 11:11:32;;;;;;;;;;;;;;;;;;5037146;28;1298;-80
2020/12/14 11:13:59;;;;;;;;;;;;;;;;;;5035162;28;1894;-80
2020/12/14 11:16:24;;;;;;;;;;;;;;;;;;5036605;28;935;-81
2020/12/14 11:18:50;;;;;;;;;;;;;;;;;;5036394;28;819;-80
2020/12/14 11:21:15;;;;;;;;;;;;;;;;;;5036137;28;1274;-80
2020/12/14 11:23:40;;;;;;;;;;;;;;;;;;5036324;28;895;-80
2020/12/14 11:26:05;;;;;;;;;;;;;;;;;;5034907;28;1143;-81
2020/12/14 11:28:31;;;;;;;;;;;;;;;;;;5036667;28;905;-80
2020/12/14 11:30:56;;;;;;;;;;;;;;;;;;5034784;28;1354;-80
2020/12/14 11:33:21;;;;;;;;;;;;;;;;;;5035948;28;1890;-80
2020/12/14 11:35:47;;;;;;;;;;;;;;;;;;5035045;28;1224;-80
2020/12/14 11:38:12;;;;;;;;;;;;;;;;;;5036317;28;844;-81
2020/12/14 11:40:38;;;;;;;;;;;;;;;;;;5034679;28;1295;-81
2020/12/14 11:43:03;;;;;;;;;;;;;;;;;;5035796;28;1409;-81
2020/12/14 11:45:28;;;;;;;;;;;;;;;;;;5036368;28;912;-82
2020/12/14 11:47:54;;;;;;;;;;;;;;;;;;5035777;28;896;-81
2020/12/14 11:50:20;;;;;;;;;;;;;;;;;;5035663;28;852;-81
2020/12/14 11:52:46;;;;;;;;;;;;;;;;;;5035608;28;2047;-81
2020/12/14 11:55:12;;;;;;;;;;;;;;;;;;5035847;28;833;-81
2020/12/14 11:57:37;;;;;;;;;;;;;;;;;;5035400;28;835;-81
2020/12/14 12:00:04;;;;;;;;;;;;;;;;;;5034787;28;1221;-80
2020/12/14 12:02:29;;;;;;;;;;;;;;;;;;5035533;28;1302;-80
2020/12/14 12:04:55;;;;;;;;;;;;;;;;;;5035594;28;831;-81
2020/12/14 12:07:20;;;;;;;;;;;;;;;;;;5035774;28;799;-81
2020/12/14 12:09:46;;;;;;;;;;;;;;;;;;5034222;28;1253;-81
2020/12/14 12:12:12;;;;;;;;;;;;;;;;;;5035202;28;1279;-80
2020/12/14 12:14:37;;;;;;;;;;;;;;;;;;5035195;28;1955;-80
2020/12/14 12:17:02;;;;;;;;;;;;;;;;;;5034637;28;826;-81
2020/12/14 12:19:27;;;;;;;;;;;;;;;;;;5033883;28;1423;-81
2020/12/14 12:21:53;;;;;;;;;;;;;;;;;;5034159;28;1278;-80
2020/12/14 12:24:21;;;;;;;;;;;;;;;;;;5035151;28;848;-80
2020/12/14 12:26:50;;;;;;;;;;;;;;;;;;5035319;28;805;-80
2020/12/14 12:29:16;;;;;;;;;;;;;;;;;;5035181;28;1219;-80
2020/12/14 12:31:41;;;;;;;;;;;;;;;;;;5034791;28;1298;-80
2020/12/14 12:34:06;;;;;;;;;;;;;;;;;;5034894;28;1897;-80
2020/12/14 12:36:32;;;;;;;;;;;;;;;;;;5034067;28;1288;-80
2020/12/14 12:38:57;;;;;;;;;;;;;;;;;;5033735;28;1209;-80
2020/12/14 12:41:22;;;;;;;;;;;;;;;;;;5033465;28;1282;-80
2020/12/14 12:43:47;;;;;;;;;;;;;;;;;;5034959;28;852;-80
2020/12/14 12:46:13;;;;;;;;;;;;;;;;;;5034874;28;893;-81
2020/12/14 12:48:38;;;;;;;;;;;;;;;;;;5034975;28;912;-81
2020/12/14 12:51:06;;;;;;;;;;;;;;;;;;5034640;28;845;-81
2020/12/14 12:53:31;;;;;;;;;;;;;;;;;;5034614;28;1893;-81
2020/12/14 12:55:57;;;;;;;;;;;;;;;;;;5034692;28;947;-81
2020/12/14 12:58:22;;;;;;;;;;;;;;;;;;5033433;28;1551;-81
2020/12/14 13:00:47;;;;;;;;;;;;;;;;;;5034900;28;884;-80
2020/12/14 13:03:13;;;;;;;;;;;;;;;;;;5034514;28;1307;-80
2020/12/14 13:05:40;;;;;;;;;;;;;;;;;;5034582;28;892;-80
2020/12/14 13:08:06;;;;;;;;;;;;;;;;;;5033316;28;1316;-80
2020/12/14 13:10:31;;;;;;;;;;;;;;;;;;5033242;28;1335;-80
2020/12/14 13:12:56;;;;;;;;;;;;;;;;;;5034767;28;1903;-80
2020/12/14 13:15:22;;;;;;;;;;;;;;;;;;5034574;28;885;-80
2020/12/14 13:17:47;;;;;;;;;;;;;;;;;;5034809;28;853;-80
2020/12/14 13:20:12;;;;;;;;;;;;;;;;;;5034323;28;798;-80
2020/12/14 13:22:37;;;;;;;;;;;;;;;;;;5034393;28;1302;-80
2020/12/14 13:25:04;;;;;;;;;;;;;;;;;;5034665;28;933;-80
2020/12/14 13:27:29;;;;;;;;;;;;;;;;;;5034620;28;996;-80
2020/12/14 13:29:54;;;;;;;;;;;;;;;;;;5038284;28;1123;-80
2020/12/14 13:32:19;;;;;;;;;;;;;;;;;;5037470;28;1314;-81
2020/12/14 13:34:45;;;;;;;;;;;;;;;;;;5036706;28;1890;-80
2020/12/14 13:37:10;;;;;;;;;;;;;;;;;;5017458;28;1434;-80
2020/12/14 13:39:35;;;;;;;;;;;;;;;;;;5018523;28;870;-80
2020/12/14 13:42:00;;;;;;;;;;;;;;;;;;5018305;28;1287;-80
2020/12/14 13:44:26;;;;;;;;;;;;;;;;;;5018500;28;864;-80
2020/12/14 13:46:52;;;;;;;;;;;;;;;;;;5018490;28;845;-80
2020/12/14 13:49:17;;;;;;;;;;;;;;;;;;5017111;28;1635;-80
2020/12/14 13:51:42;;;;;;;;;;;;;;;;;;5016964;28;1262;-80
2020/12/14 13:54:07;;;;;;;;;;;;;;;;;;5016862;28;2183;-80
2020/12/14 13:56:32;;;;;;;;;;;;;;;;;;5017118;28;1121;-80
2020/12/14 13:58:58;;;;;;;;;;;;;;;;;;5018067;28;853;-80
2020/12/14 14:01:23;;;;;;;;;;;;;;;;;;5017828;28;1287;-80
2020/12/14 14:03:48;;;;;;;;;;;;;;;;;;5018265;28;816;-80
2020/12/14 14:06:13;;;;;;;;;;;;;;;;;;5018088;28;866;-80
2020/12/14 14:08:39;;;;;;;;;;;;;;;;;;5017954;28;810;-80
2020/12/14 14:11:04;;;;;;;;;;;;;;;;;;5017657;28;1006;-81
2020/12/14 14:13:29;;;;;;;;;;;;;;;;;;5017752;28;1906;-80
2020/12/14 14:15:55;;;;;;;;;;;;;;;;;;5017856;28;818;-80
2020/12/14 14:18:20;;;;;;;;;;;;;;;;;;5016561;28;1359;-80
2020/12/14 14:20:49;;;;;;;;;;;;;;;;;;5017539;28;873;-80
2020/12/14 14:23:15;;;;;;;;;;;;;;;;;;5016279;28;1326;-81
2020/12/14 14:25:40;;;;;;;;;;;;;;;;;;5017818;28;906;-80
2020/12/14 14:28:05;;;;;;;;;;;;;;;;;;5017511;28;889;-81
2020/12/14 14:30:31;;;;;;;;;;;;;;;;;;5017410;28;968;-81
2020/12/14 14:32:56;;;;;;;;;;;;;;;;;;5017923;28;1898;-81
2020/12/14 14:35:21;;;;;;;;;;;;;;;;;;5017969;28;897;-81
2020/12/14 14:37:46;;;;;;;;;;;;;;;;;;5017096;28;1220;-80
2020/12/14 14:40:13;;;;;;;;;;;;;;;;;;5017223;28;978;-81
2020/12/14 14:42:38;;;;;;;;;;;;;;;;;;5017258;28;1267;-81
2020/12/14 14:45:04;;;;;;;;;;;;;;;;;;5017699;28;825;-82
2020/12/14 14:47:29;;;;;;;;;;;;;;;;;;5017031;28;826;-82
2020/12/14 14:49:54;;;;;;;;;;;;;;;;;;5017380;28;763;-81
2020/12/14 14:52:20;;;;;;;;;;;;;;;;;;5016906;28;1353;-81
2020/12/14 14:54:45;;;;;;;;;;;;;;;;;;5015571;28;1949;-82
2020/12/14 14:57:10;;;;;;;;;;;;;;;;;;5015646;28;1401;-82
2020/12/14 14:59:36;;;;;;;;;;;;;;;;;;5015596;28;1660;-81
2020/12/14 15:02:01;;;;;;;;;;;;;;;;;;5016749;28;1294;-81
2020/12/14 15:04:26;;;;;;;;;;;;;;;;;;5016918;28;806;-81
2020/12/14 15:06:52;;;;;;;;;;;;;;;;;;5015828;28;940;-81
2020/12/14 15:09:17;;;;;;;;;;;;;;;;;;5015563;28;1610;-82
2020/12/14 15:11:43;;;;;;;;;;;;;;;;;;5015428;28;1440;-81
2020/12/14 15:14:12;;;;;;;;;;;;;;;;;;5015488;28;1898;-81
2020/12/14 15:16:38;;;;;;;;;;;;;;;;;;5016743;28;814;-82
2020/12/14 15:19:03;;;;;;;;;;;;;;;;;;5016773;28;826;-81
2020/12/14 15:21:29;;;;;;;;;;;;;;;;;;5016296;28;1377;-81
2020/12/14 15:23:54;;;;;;;;;;;;;;;;;;5016505;28;1050;-81
2020/12/14 15:26:19;;;;;;;;;;;;;;;;;;5015532;28;897;-81
2020/12/14 15:28:45;;;;;;;;;;;;;;;;;;5015660;28;832;-82
2020/12/14 15:31:13;;;;;;;;;;;;;;;;;;5016323;28;1349;-81
2020/12/14 15:33:39;;;;;;;;;;;;;;;;;;5015073;28;1890;-82
2020/12/14 15:36:04;;;;;;;;;;;;;;;;;;5015308;28;1340;-81
2020/12/14 15:38:29;;;;;;;;;;;;;;;;;;5016230;28;897;-81
2020/12/14 15:40:55;;;;;;;;;;;;;;;;;;5014694;28;1437;-81
2020/12/14 15:43:20;;;;;;;;;;;;;;;;;;5016059;28;1299;-82
2020/12/14 15:45:45;;;;;;;;;;;;;;;;;;5016197;28;821;-82
2020/12/14 15:48:11;;;;;;;;;;;;;;;;;;5014846;28;1232;-82
2020/12/14 15:50:43;;;;;;;;;;;;;;;;;;5013716;28;1292;-81
2020/12/14 15:53:08;;;;;;;;;;;;;;;;;;5016190;28;1894;-82
2020/12/14 15:55:36;;;;;;;;;;;;;;;;;;5014734;28;1306;-82
2020/12/14 15:58:01;;;;;;;;;;;;;;;;;;5016054;28;956;-82
2020/12/14 16:00:27;;;;;;;;;;;;;;;;;;5014548;28;1195;-81
2020/12/14 16:02:52;;;;;;;;;;;;;;;;;;5014332;28;1338;-81
2020/12/14 16:05:19;;;;;;;;;;;;;;;;;;5015799;28;885;-81
2020/12/14 16:07:45;;;;;;;;;;;;;;;;;;5015684;28;844;-81
2020/12/14 16:10:10;;;;;;;;;;;;;;;;;;5015877;28;1299;-81
2020/12/14 16:12:35;;;;;;;;;;;;;;;;;;5015938;28;1385;-81
2020/12/14 16:15:01;;;;;;;;;;;;;;;;;;5014810;28;1898;-81
2020/12/14 16:17:26;;;;;;;;;;;;;;;;;;5015683;28;803;-81
2020/12/14 16:19:51;;;;;;;;;;;;;;;;;;5015691;28;790;-81
2020/12/14 16:22:17;;;;;;;;;;;;;;;;;;5014129;28;1283;-82
2020/12/14 16:24:42;;;;;;;;;;;;;;;;;;5014596;28;1352;-81
2020/12/14 16:27:08;;;;;;;;;;;;;;;;;;5015557;28;988;-81
2020/12/14 16:29:34;;;;;;;;;;;;;;;;;;5015654;28;846;-81
2020/12/14 16:31:59;;;;;;;;;;;;;;;;;;5014334;28;1350;-82
2020/12/14 16:34:25;;;;;;;;;;;;;;;;;;5014249;28;2043;-82
2020/12/14 16:36:50;;;;;;;;;;;;;;;;;;5015245;28;1023;-81
2020/12/14 16:39:15;;;;;;;;;;;;;;;;;;5014162;28;1255;-81
2020/12/14 16:41:49;;;;;;;;;;;;;;;;;;5014989;28;1365;-82
2020/12/14 16:44:15;;;;;;;;;;;;;;;;;;5015480;28;952;-81
2020/12/14 16:46:44;;;;;;;;;;;;;;;;;;5014292;28;1523;-81
2020/12/14 16:49:09;;;;;;;;;;;;;;;;;;5014176;28;1148;-81
2020/12/14 16:51:35;;;;;;;;;;;;;;;;;;5013665;28;1459;-81
2020/12/14 16:54:00;;;;;;;;;;;;;;;;;;5014397;28;1961;-82
2020/12/14 16:56:28;;;;;;;;;;;;;;;;;;5015024;28;831;-81
2020/12/14 16:58:57;;;;;;;;;;;;;;;;;;5015453;28;905;-81
2020/12/14 17:01:23;;;;;;;;;;;;;;;;;;5013583;28;1433;-82
2020/12/14 17:03:49;;;;;;;;;;;;;;;;;;5013832;28;1456;-81